Terminal Aerodrome Forecast
Issued by NWS Mt. Holly, NJ

Current Version | Previous Version | Text Only | Print | Product List | Glossary On
Versions: 1 2 3 4 5 6 7 8 9 10 11 12 13 14 15 16 17 18 19 20 21 22 23
334
FTUS41 KPHI 100340 AAB
TAFACY
TAF AMD
KACY 100340Z 1004/1024 30005KT P6SM VCSH OVC010
      TEMPO 1004/1006 BKN004 OVC010
     FM101000 27008KT P6SM OVC025
     FM101200 28012KT P6SM SCT020 BKN050
     FM101400 28015G25KT P6SM BKN050=

USA.gov is the U.S. government's official web portal to all federal, state and local government web resources and services.